Ana Sayfa
METAR-TAF:

METAR-TAF

Havaalanları :

Budapeşte, Macaristan

Enlem: 47-26N, Boylam: 019-16E, yükseklik: 151 m

Güncel hava durumu gözlemi

Rapor saat 07:30 UTC de 6 dakika önce yapıldı.
Rüzgar değişken yönden 3 kt
Sıcaklık 19°C
Nem 40%
Basınç 1022 hPa
Görüş mesafesi 10 km veya daha fazla
1500 m altında bulut yok ve kümülonimbus yok

METAR: LHBP 210730Z VRB03KT CAVOK 19/05 Q1022 NOSIG

Saat: 09:36 (07:36 UTC)

Tahmin

Rapor saat 05:15 UTC de 2 saat ve 21 dakika önce yapıldı.
Ayın 21'si saat 06 UTC'den ayın 22'si saat 06 UTC'ye kadar geçerli Tahmin
Rüzgar değişken yönden 3 kt
Görüş mesafesi 10 km veya daha fazla
1500 m altında bulut yok ve kümülonimbus yok
Dönüşüyor
ayın 21'si saat 08 UTC'den ayın 21'si saat 10 UTC'ye kadar
Rüzgar güneybatıdan 6 kt
Dönüşüyor
ayın 21'si saat 20 UTC'den ayın 21'si saat 22 UTC'ye kadar
Rüzgar değişken yönden 3 kt

TAF: LHBP 210515Z 2106/2206 VRB03KT CAVOK BECMG 2108/2110 22006KT BECMG 2120/2122 VRB03KT

4.000'den fazla havaalanı için hava durumu gözlemleri ve tahminleri (METAR ve TAF raporları).

Kullanılabilir istasyonlar harita üzerinde sarı ve kırmızı noktalarla gösterilir.

İstasyonun adını görmek için fareyi noktanın üzerinde gezdirin.

Sonrasında hava gözlem ve tahminlerini görmek için tıklayın.

Haritayı değiştirmek için: yaklaştırmak için siyah artı işaretli yeşil düğmeye ve uzaklaştırmak için de eksi işaretli düğmeye hızla tıklayın; bitişik haritalar için yeşil okları kullanın.


METAR-TAF: